sensor_id;sensor_type;location;lat;lon;timestamp;pressure;altitude;pressure_sealevel;temperature
29701;BMP280;57917;51.380;-0.176;2024-01-07T00:03:16;101830.75;;;4.66
29701;BMP280;57917;51.380;-0.176;2024-01-07T00:09:03;101833.38;;;4.66
29701;BMP280;57917;51.380;-0.176;2024-01-07T00:14:52;101832.13;;;4.82
29701;BMP280;57917;51.380;-0.176;2024-01-07T00:20:39;101828.09;;;4.73
29701;BMP280;57917;51.380;-0.176;2024-01-07T00:26:33;101833.97;;;4.49
29701;BMP280;57917;51.380;-0.176;2024-01-07T00:32:20;101833.38;;;4.47
29701;BMP280;57917;51.380;-0.176;2024-01-07T00:38:06;101833.38;;;4.47
29701;BMP280;57917;51.380;-0.176;2024-01-07T00:51:34;101841.22;;;4.20
29701;BMP280;57917;51.380;-0.176;2024-01-07T00:57:22;101851.88;;;4.06
29701;BMP280;57917;51.380;-0.176;2024-01-07T01:03:09;101851.03;;;3.99
29701;BMP280;57917;51.380;-0.176;2024-01-07T01:08:58;101866.34;;;3.89
29701;BMP280;57917;51.380;-0.176;2024-01-07T01:14:48;101871.38;;;3.97
29701;BMP280;57917;51.380;-0.176;2024-01-07T01:20:38;101873.38;;;3.88
29701;BMP280;57917;51.380;-0.176;2024-01-07T01:26:31;101869.75;;;3.83
29701;BMP280;57917;51.380;-0.176;2024-01-07T01:32:21;101867.31;;;3.81
29701;BMP280;57917;51.380;-0.176;2024-01-07T01:38:10;101874.09;;;3.63
29701;BMP280;57917;51.380;-0.176;2024-01-07T01:43:58;101880.53;;;3.60
29701;BMP280;57917;51.380;-0.176;2024-01-07T01:49:46;101872.63;;;3.54
29701;BMP280;57917;51.380;-0.176;2024-01-07T01:55:36;101890.69;;;3.42
29701;BMP280;57917;51.380;-0.176;2024-01-07T02:01:25;101895.41;;;3.25
29701;BMP280;57917;51.380;-0.176;2024-01-07T02:07:13;101902.88;;;3.28
29701;BMP280;57917;51.380;-0.176;2024-01-07T02:13:05;101911.97;;;3.32
29701;BMP280;57917;51.380;-0.176;2024-01-07T02:18:52;101901.81;;;3.16
29701;BMP280;57917;51.380;-0.176;2024-01-07T02:24:41;101911.81;;;3.13
29701;BMP280;57917;51.380;-0.176;2024-01-07T02:30:28;101915.53;;;3.18
29701;BMP280;57917;51.380;-0.176;2024-01-07T02:36:15;101902.00;;;3.15
29701;BMP280;57917;51.380;-0.176;2024-01-07T02:42:02;101915.72;;;2.96
29701;BMP280;57917;51.380;-0.176;2024-01-07T02:47:50;101906.06;;;2.96
29701;BMP280;57917;51.380;-0.176;2024-01-07T02:53:37;101902.50;;;3.04
29701;BMP280;57917;51.380;-0.176;2024-01-07T02:59:24;101905.06;;;2.97
29701;BMP280;57917;51.380;-0.176;2024-01-07T03:05:10;101907.28;;;3.00
29701;BMP280;57917;51.380;-0.176;2024-01-07T03:10:57;101918.97;;;2.98
29701;BMP280;57917;51.380;-0.176;2024-01-07T03:16:44;101905.81;;;3.12
29701;BMP280;57917;51.380;-0.176;2024-01-07T03:22:31;101923.19;;;3.20
29701;BMP280;57917;51.380;-0.176;2024-01-07T03:28:18;101911.88;;;3.19
29701;BMP280;57917;51.380;-0.176;2024-01-07T03:34:05;101913.00;;;3.31
29701;BMP280;57917;51.380;-0.176;2024-01-07T03:39:52;101911.13;;;2.98
29701;BMP280;57917;51.380;-0.176;2024-01-07T03:45:38;101917.44;;;3.10
29701;BMP280;57917;51.380;-0.176;2024-01-07T03:51:25;101921.13;;;3.22
29701;BMP280;57917;51.380;-0.176;2024-01-07T03:57:12;101908.84;;;2.95
29701;BMP280;57917;51.380;-0.176;2024-01-07T04:03:01;101922.94;;;2.94
29701;BMP280;57917;51.380;-0.176;2024-01-07T04:08:48;101927.34;;;2.87
29701;BMP280;57917;51.380;-0.176;2024-01-07T04:14:37;101927.13;;;2.88
29701;BMP280;57917;51.380;-0.176;2024-01-07T04:20:23;101923.28;;;2.84
29701;BMP280;57917;51.380;-0.176;2024-01-07T04:26:10;101934.47;;;2.78
29701;BMP280;57917;51.380;-0.176;2024-01-07T04:31:57;101937.22;;;2.70
29701;BMP280;57917;51.380;-0.176;2024-01-07T04:37:55;101945.41;;;2.67
29701;BMP280;57917;51.380;-0.176;2024-01-07T04:43:43;101951.47;;;2.68
29701;BMP280;57917;51.380;-0.176;2024-01-07T04:49:33;101943.81;;;2.66
29701;BMP280;57917;51.380;-0.176;2024-01-07T04:55:23;101951.72;;;2.73
29701;BMP280;57917;51.380;-0.176;2024-01-07T05:01:20;101960.47;;;2.65
29701;BMP280;57917;51.380;-0.176;2024-01-07T05:07:08;101965.69;;;2.65
29701;BMP280;57917;51.380;-0.176;2024-01-07T05:12:55;101973.69;;;2.57
29701;BMP280;57917;51.380;-0.176;2024-01-07T05:18:42;101978.69;;;2.52
29701;BMP280;57917;51.380;-0.176;2024-01-07T05:24:29;101990.94;;;2.51
29701;BMP280;57917;51.380;-0.176;2024-01-07T05:30:20;101996.06;;;2.45
29701;BMP280;57917;51.380;-0.176;2024-01-07T05:36:07;102002.94;;;2.46
29701;BMP280;57917;51.380;-0.176;2024-01-07T05:41:53;102010.81;;;2.52
29701;BMP280;57917;51.380;-0.176;2024-01-07T05:47:40;102024.09;;;2.51
29701;BMP280;57917;51.380;-0.176;2024-01-07T05:53:27;102027.59;;;2.58
29701;BMP280;57917;51.380;-0.176;2024-01-07T05:59:16;102031.44;;;2.62
29701;BMP280;57917;51.380;-0.176;2024-01-07T06:05:05;102024.63;;;2.61
29701;BMP280;57917;51.380;-0.176;2024-01-07T06:10:52;102033.66;;;2.59
29701;BMP280;57917;51.380;-0.176;2024-01-07T06:16:39;102041.56;;;2.50
29701;BMP280;57917;51.380;-0.176;2024-01-07T06:22:25;102043.47;;;2.42
29701;BMP280;57917;51.380;-0.176;2024-01-07T06:28:12;102052.13;;;2.42
29701;BMP280;57917;51.380;-0.176;2024-01-07T06:33:59;102060.16;;;2.41
29701;BMP280;57917;51.380;-0.176;2024-01-07T06:39:46;102066.34;;;2.40
29701;BMP280;57917;51.380;-0.176;2024-01-07T06:45:34;102076.38;;;2.36
29701;BMP280;57917;51.380;-0.176;2024-01-07T06:51:23;102089.81;;;2.48
29701;BMP280;57917;51.380;-0.176;2024-01-07T06:57:09;102095.03;;;2.48
29701;BMP280;57917;51.380;-0.176;2024-01-07T07:02:56;102100.91;;;2.50
29701;BMP280;57917;51.380;-0.176;2024-01-07T07:08:43;102099.34;;;2.41
29701;BMP280;57917;51.380;-0.176;2024-01-07T07:14:30;102121.81;;;2.50
29701;BMP280;57917;51.380;-0.176;2024-01-07T07:20:17;102122.06;;;2.55
29701;BMP280;57917;51.380;-0.176;2024-01-07T07:26:07;102129.91;;;2.55
29701;BMP280;57917;51.380;-0.176;2024-01-07T07:31:57;102137.19;;;2.45
29701;BMP280;57917;51.380;-0.176;2024-01-07T07:37:47;102143.47;;;2.65
29701;BMP280;57917;51.380;-0.176;2024-01-07T07:43:34;102154.69;;;2.59
29701;BMP280;57917;51.380;-0.176;2024-01-07T07:49:21;102164.69;;;2.70
29701;BMP280;57917;51.380;-0.176;2024-01-07T07:55:12;102162.28;;;2.54
29701;BMP280;57917;51.380;-0.176;2024-01-07T08:00:59;102187.19;;;2.42
29701;BMP280;57917;51.380;-0.176;2024-01-07T08:06:48;102192.09;;;2.45
29701;BMP280;57917;51.380;-0.176;2024-01-07T08:12:38;102192.31;;;2.58
29701;BMP280;57917;51.380;-0.176;2024-01-07T08:18:25;102212.91;;;2.68
29701;BMP280;57917;51.380;-0.176;2024-01-07T08:24:14;102234.56;;;2.76
29701;BMP280;57917;51.380;-0.176;2024-01-07T08:30:04;102229.88;;;2.86
29701;BMP280;57917;51.380;-0.176;2024-01-07T08:35:51;102233.97;;;2.89
29701;BMP280;57917;51.380;-0.176;2024-01-07T08:41:40;102244.06;;;3.06
29701;BMP280;57917;51.380;-0.176;2024-01-07T08:47:27;102237.59;;;3.23
29701;BMP280;57917;51.380;-0.176;2024-01-07T08:53:19;102237.47;;;3.10
29701;BMP280;57917;51.380;-0.176;2024-01-07T08:59:09;102247.38;;;3.29
29701;BMP280;57917;51.380;-0.176;2024-01-07T09:04:56;102251.63;;;3.52
29701;BMP280;57917;51.380;-0.176;2024-01-07T09:10:57;102256.03;;;3.66
29701;BMP280;57917;51.380;-0.176;2024-01-07T09:16:48;102264.53;;;3.89
29701;BMP280;57917;51.380;-0.176;2024-01-07T09:22:35;102268.00;;;3.75
29701;BMP280;57917;51.380;-0.176;2024-01-07T09:28:27;102268.25;;;4.01
29701;BMP280;57917;51.380;-0.176;2024-01-07T09:34:14;102274.84;;;4.39
29701;BMP280;57917;51.380;-0.176;2024-01-07T09:40:02;102271.91;;;4.27
29701;BMP280;57917;51.380;-0.176;2024-01-07T09:45:53;102262.59;;;4.46
29701;BMP280;57917;51.380;-0.176;2024-01-07T09:51:40;102275.31;;;4.49
29701;BMP280;57917;51.380;-0.176;2024-01-07T09:57:31;102280.59;;;4.83
29701;BMP280;57917;51.380;-0.176;2024-01-07T10:03:21;102286.81;;;4.48
29701;BMP280;57917;51.380;-0.176;2024-01-07T10:09:15;102283.59;;;4.46
29701;BMP280;57917;51.380;-0.176;2024-01-07T10:15:02;102289.94;;;4.37
29701;BMP280;57917;51.380;-0.176;2024-01-07T10:20:49;102292.84;;;4.76
29701;BMP280;57917;51.380;-0.176;2024-01-07T10:26:43;102296.50;;;4.82
29701;BMP280;57917;51.380;-0.176;2024-01-07T10:32:30;102299.69;;;5.11
29701;BMP280;57917;51.380;-0.176;2024-01-07T10:38:18;102295.69;;;5.15
29701;BMP280;57917;51.380;-0.176;2024-01-07T10:44:05;102282.25;;;5.44
29701;BMP280;57917;51.380;-0.176;2024-01-07T10:49:55;102278.88;;;5.03
29701;BMP280;57917;51.380;-0.176;2024-01-07T10:55:54;102280.84;;;5.35
29701;BMP280;57917;51.380;-0.176;2024-01-07T11:01:48;102281.84;;;4.94
29701;BMP280;57917;51.380;-0.176;2024-01-07T11:07:40;102280.22;;;4.93
29701;BMP280;57917;51.380;-0.176;2024-01-07T11:13:32;102281.22;;;4.85
29701;BMP280;57917;51.380;-0.176;2024-01-07T11:19:20;102265.03;;;4.82
29701;BMP280;57917;51.380;-0.176;2024-01-07T11:25:28;102269.84;;;5.12
29701;BMP280;57917;51.380;-0.176;2024-01-07T11:31:18;102272.72;;;5.30
29701;BMP280;57917;51.380;-0.176;2024-01-07T11:37:11;102283.28;;;5.37
29701;BMP280;57917;51.380;-0.176;2024-01-07T11:43:01;102285.09;;;4.96
29701;BMP280;57917;51.380;-0.176;2024-01-07T11:48:58;102285.41;;;4.80
29701;BMP280;57917;51.380;-0.176;2024-01-07T11:54:49;102290.97;;;4.70
29701;BMP280;57917;51.380;-0.176;2024-01-07T12:00:37;102291.75;;;4.98
29701;BMP280;57917;51.380;-0.176;2024-01-07T12:06:24;102291.50;;;4.87
29701;BMP280;57917;51.380;-0.176;2024-01-07T12:12:12;102287.13;;;5.00
29701;BMP280;57917;51.380;-0.176;2024-01-07T12:18:00;102280.63;;;4.96
29701;BMP280;57917;51.380;-0.176;2024-01-07T12:23:50;102278.69;;;5.11
29701;BMP280;57917;51.380;-0.176;2024-01-07T12:29:37;102276.84;;;5.05
29701;BMP280;57917;51.380;-0.176;2024-01-07T12:35:28;102276.28;;;5.10
29701;BMP280;57917;51.380;-0.176;2024-01-07T12:41:15;102286.03;;;5.22
29701;BMP280;57917;51.380;-0.176;2024-01-07T12:47:05;102282.28;;;4.97
29701;BMP280;57917;51.380;-0.176;2024-01-07T12:53:09;102279.81;;;4.89
29701;BMP280;57917;51.380;-0.176;2024-01-07T12:58:56;102281.59;;;4.82
29701;BMP280;57917;51.380;-0.176;2024-01-07T13:04:43;102278.16;;;4.88
29701;BMP280;57917;51.380;-0.176;2024-01-07T13:10:34;102276.28;;;4.76
29701;BMP280;57917;51.380;-0.176;2024-01-07T13:16:24;102288.63;;;4.75
29701;BMP280;57917;51.380;-0.176;2024-01-07T13:22:14;102306.44;;;4.86
29701;BMP280;57917;51.380;-0.176;2024-01-07T13:28:01;102305.66;;;4.92
29701;BMP280;57917;51.380;-0.176;2024-01-07T13:33:49;102300.22;;;4.87
29701;BMP280;57917;51.380;-0.176;2024-01-07T13:39:43;102301.28;;;4.99
29701;BMP280;57917;51.380;-0.176;2024-01-07T13:45:30;102291.47;;;4.80
29701;BMP280;57917;51.380;-0.176;2024-01-07T13:51:47;102304.41;;;4.88
29701;BMP280;57917;51.380;-0.176;2024-01-07T13:57:36;102300.66;;;4.97
29701;BMP280;57917;51.380;-0.176;2024-01-07T14:03:29;102306.94;;;5.03
29701;BMP280;57917;51.380;-0.176;2024-01-07T14:10:02;102306.13;;;5.09
29701;BMP280;57917;51.380;-0.176;2024-01-07T14:16:14;102305.81;;;4.84
29701;BMP280;57917;51.380;-0.176;2024-01-07T14:22:02;102329.47;;;4.91
29701;BMP280;57917;51.380;-0.176;2024-01-07T14:27:55;102321.78;;;4.89
29701;BMP280;57917;51.380;-0.176;2024-01-07T14:42:04;102330.28;;;4.91
29701;BMP280;57917;51.380;-0.176;2024-01-07T14:47:51;102331.44;;;4.82
29701;BMP280;57917;51.380;-0.176;2024-01-07T14:53:38;102334.41;;;4.73
29701;BMP280;57917;51.380;-0.176;2024-01-07T14:59:26;102333.75;;;4.64
29701;BMP280;57917;51.380;-0.176;2024-01-07T15:05:13;102343.84;;;4.67
29701;BMP280;57917;51.380;-0.176;2024-01-07T15:11:00;102349.09;;;4.67
29701;BMP280;57917;51.380;-0.176;2024-01-07T15:16:47;102349.28;;;4.66
29701;BMP280;57917;51.380;-0.176;2024-01-07T15:22:40;102353.72;;;4.65
29701;BMP280;57917;51.380;-0.176;2024-01-07T15:28:27;102359.28;;;4.56
29701;BMP280;57917;51.380;-0.176;2024-01-07T15:34:14;102375.22;;;4.54
29701;BMP280;57917;51.380;-0.176;2024-01-07T15:40:01;102371.44;;;4.63
29701;BMP280;57917;51.380;-0.176;2024-01-07T15:45:49;102388.13;;;4.56
29701;BMP280;57917;51.380;-0.176;2024-01-07T15:51:39;102398.06;;;4.39
29701;BMP280;57917;51.380;-0.176;2024-01-07T15:57:28;102410.00;;;4.41
29701;BMP280;57917;51.380;-0.176;2024-01-07T16:03:17;102422.38;;;4.48
29701;BMP280;57917;51.380;-0.176;2024-01-07T16:09:05;102411.63;;;4.42
29701;BMP280;57917;51.380;-0.176;2024-01-07T16:14:58;102432.78;;;4.41
29701;BMP280;57917;51.380;-0.176;2024-01-07T16:20:51;102451.41;;;4.46
29701;BMP280;57917;51.380;-0.176;2024-01-07T16:26:44;102444.84;;;4.35
29701;BMP280;57917;51.380;-0.176;2024-01-07T16:32:31;102444.44;;;4.38
29701;BMP280;57917;51.380;-0.176;2024-01-07T16:38:18;102451.84;;;4.50
29701;BMP280;57917;51.380;-0.176;2024-01-07T16:44:09;102439.41;;;4.37
29701;BMP280;57917;51.380;-0.176;2024-01-07T16:49:56;102456.81;;;4.44
29701;BMP280;57917;51.380;-0.176;2024-01-07T16:56:07;102466.84;;;4.20
29701;BMP280;57917;51.380;-0.176;2024-01-07T17:01:54;102474.34;;;4.23
29701;BMP280;57917;51.380;-0.176;2024-01-07T17:07:43;102480.94;;;4.19
29701;BMP280;57917;51.380;-0.176;2024-01-07T17:13:47;102490.34;;;4.13
29701;BMP280;57917;51.380;-0.176;2024-01-07T17:19:34;102501.56;;;4.07
29701;BMP280;57917;51.380;-0.176;2024-01-07T17:25:21;102503.09;;;4.16
29701;BMP280;57917;51.380;-0.176;2024-01-07T17:31:08;102506.81;;;3.93
29701;BMP280;57917;51.380;-0.176;2024-01-07T17:36:55;102515.13;;;4.11
29701;BMP280;57917;51.380;-0.176;2024-01-07T17:42:42;102522.53;;;4.22
29701;BMP280;57917;51.380;-0.176;2024-01-07T17:48:32;102533.66;;;4.09
29701;BMP280;57917;51.380;-0.176;2024-01-07T17:54:21;102552.72;;;4.18
29701;BMP280;57917;51.380;-0.176;2024-01-07T18:00:13;102552.25;;;4.14
29701;BMP280;57917;51.380;-0.176;2024-01-07T18:06:03;102562.56;;;4.16
29701;BMP280;57917;51.380;-0.176;2024-01-07T18:11:50;102583.44;;;3.95
29701;BMP280;57917;51.380;-0.176;2024-01-07T18:17:38;102585.41;;;3.78
29701;BMP280;57917;51.380;-0.176;2024-01-07T18:23:30;102595.38;;;3.83
29701;BMP280;57917;51.380;-0.176;2024-01-07T18:29:17;102593.97;;;3.72
29701;BMP280;57917;51.380;-0.176;2024-01-07T18:35:04;102605.03;;;3.82
29701;BMP280;57917;51.380;-0.176;2024-01-07T18:40:51;102615.47;;;3.68
29701;BMP280;57917;51.380;-0.176;2024-01-07T18:46:43;102626.00;;;3.60
29701;BMP280;57917;51.380;-0.176;2024-01-07T18:52:34;102620.13;;;3.58
29701;BMP280;57917;51.380;-0.176;2024-01-07T18:58:24;102632.38;;;3.80
29701;BMP280;57917;51.380;-0.176;2024-01-07T19:04:13;102644.72;;;3.94
29701;BMP280;57917;51.380;-0.176;2024-01-07T19:10:03;102642.88;;;3.94
29701;BMP280;57917;51.380;-0.176;2024-01-07T19:15:50;102634.03;;;3.81
29701;BMP280;57917;51.380;-0.176;2024-01-07T19:21:38;102627.75;;;3.90
29701;BMP280;57917;51.380;-0.176;2024-01-07T19:27:28;102625.34;;;3.80
29701;BMP280;57917;51.380;-0.176;2024-01-07T19:33:19;102633.03;;;3.96
29701;BMP280;57917;51.380;-0.176;2024-01-07T19:39:13;102638.56;;;3.87
29701;BMP280;57917;51.380;-0.176;2024-01-07T19:45:06;102652.94;;;3.91
29701;BMP280;57917;51.380;-0.176;2024-01-07T19:50:58;102664.94;;;3.85
29701;BMP280;57917;51.380;-0.176;2024-01-07T19:56:48;102664.19;;;3.77
29701;BMP280;57917;51.380;-0.176;2024-01-07T20:02:36;102651.59;;;3.72
29701;BMP280;57917;51.380;-0.176;2024-01-07T20:09:00;102648.00;;;3.73
29701;BMP280;57917;51.380;-0.176;2024-01-07T20:14:55;102631.47;;;3.73
29701;BMP280;57917;51.380;-0.176;2024-01-07T20:21:21;102643.69;;;3.80
29701;BMP280;57917;51.380;-0.176;2024-01-07T20:27:13;102643.78;;;3.87
29701;BMP280;57917;51.380;-0.176;2024-01-07T20:33:05;102655.25;;;3.86
29701;BMP280;57917;51.380;-0.176;2024-01-07T20:38:57;102659.47;;;3.72
29701;BMP280;57917;51.380;-0.176;2024-01-07T20:44:46;102666.88;;;3.69
29701;BMP280;57917;51.380;-0.176;2024-01-07T20:50:34;102671.69;;;3.80
29701;BMP280;57917;51.380;-0.176;2024-01-07T20:56:22;102674.34;;;3.72
29701;BMP280;57917;51.380;-0.176;2024-01-07T21:02:13;102680.16;;;3.90
29701;BMP280;57917;51.380;-0.176;2024-01-07T21:08:03;102690.66;;;3.82
29701;BMP280;57917;51.380;-0.176;2024-01-07T21:13:52;102689.75;;;3.75
29701;BMP280;57917;51.380;-0.176;2024-01-07T21:19:48;102682.84;;;3.51
29701;BMP280;57917;51.380;-0.176;2024-01-07T21:25:36;102689.69;;;3.60
29701;BMP280;57917;51.380;-0.176;2024-01-07T21:31:23;102700.38;;;3.50
29701;BMP280;57917;51.380;-0.176;2024-01-07T21:37:10;102709.94;;;3.43
29701;BMP280;57917;51.380;-0.176;2024-01-07T21:42:57;102708.69;;;3.31
29701;BMP280;57917;51.380;-0.176;2024-01-07T21:48:45;102717.72;;;3.52
29701;BMP280;57917;51.380;-0.176;2024-01-07T21:54:33;102717.47;;;3.38
29701;BMP280;57917;51.380;-0.176;2024-01-07T22:00:20;102703.25;;;3.41
29701;BMP280;57917;51.380;-0.176;2024-01-07T22:06:19;102703.41;;;3.39
29701;BMP280;57917;51.380;-0.176;2024-01-07T22:12:09;102693.78;;;3.32
29701;BMP280;57917;51.380;-0.176;2024-01-07T22:17:58;102704.72;;;3.43
29701;BMP280;57917;51.380;-0.176;2024-01-07T22:23:50;102706.31;;;3.44
29701;BMP280;57917;51.380;-0.176;2024-01-07T22:29:37;102703.75;;;3.36
29701;BMP280;57917;51.380;-0.176;2024-01-07T22:35:24;102690.63;;;3.44
29701;BMP280;57917;51.380;-0.176;2024-01-07T22:41:14;102699.81;;;3.40
29701;BMP280;57917;51.380;-0.176;2024-01-07T22:47:03;102703.28;;;3.33
29701;BMP280;57917;51.380;-0.176;2024-01-07T22:52:50;102715.50;;;3.40
29701;BMP280;57917;51.380;-0.176;2024-01-07T22:58:37;102705.06;;;3.32
29701;BMP280;57917;51.380;-0.176;2024-01-07T23:04:25;102709.81;;;3.37
29701;BMP280;57917;51.380;-0.176;2024-01-07T23:10:24;102719.13;;;3.39
29701;BMP280;57917;51.380;-0.176;2024-01-07T23:16:13;102707.66;;;3.40
29701;BMP280;57917;51.380;-0.176;2024-01-07T23:22:02;102719.88;;;3.17
29701;BMP280;57917;51.380;-0.176;2024-01-07T23:27:59;102719.00;;;3.33
29701;BMP280;57917;51.380;-0.176;2024-01-07T23:34:05;102726.53;;;3.28
29701;BMP280;57917;51.380;-0.176;2024-01-07T23:39:55;102728.63;;;3.32
29701;BMP280;57917;51.380;-0.176;2024-01-07T23:45:54;102721.34;;;3.20
29701;BMP280;57917;51.380;-0.176;2024-01-07T23:51:52;102725.19;;;3.32
